sensor_id;sensor_type;location;lat;lon;timestamp;pressure;altitude;pressure_sealevel;temperature;humidity
23281;BME280;11809;56.390;-3.266;2024-03-08T00:00:36;101811.88;;;14.48;56.16
23281;BME280;11809;56.390;-3.266;2024-03-08T00:03:10;101794.34;;;14.46;56.49
23281;BME280;11809;56.390;-3.266;2024-03-08T00:05:43;101787.47;;;14.42;56.64
23281;BME280;11809;56.390;-3.266;2024-03-08T00:08:13;101796.31;;;14.41;56.68
23281;BME280;11809;56.390;-3.266;2024-03-08T00:10:43;101785.22;;;14.31;56.68
23281;BME280;11809;56.390;-3.266;2024-03-08T00:13:14;101786.06;;;14.32;56.59
23281;BME280;11809;56.390;-3.266;2024-03-08T00:15:45;101786.19;;;14.29;56.92
23281;BME280;11809;56.390;-3.266;2024-03-08T00:18:18;101779.22;;;14.26;57.07
23281;BME280;11809;56.390;-3.266;2024-03-08T00:20:48;101774.09;;;14.22;57.25
23281;BME280;11809;56.390;-3.266;2024-03-08T00:23:19;101775.94;;;14.20;56.97
23281;BME280;11809;56.390;-3.266;2024-03-08T00:25:49;101781.31;;;14.17;57.25
23281;BME280;11809;56.390;-3.266;2024-03-08T00:28:19;101773.41;;;14.17;57.06
23281;BME280;11809;56.390;-3.266;2024-03-08T00:30:49;101789.38;;;14.14;57.16
23281;BME280;11809;56.390;-3.266;2024-03-08T00:33:22;101764.84;;;14.10;57.29
23281;BME280;11809;56.390;-3.266;2024-03-08T00:35:52;101764.97;;;14.07;57.25
23281;BME280;11809;56.390;-3.266;2024-03-08T00:38:23;101763.28;;;14.05;57.22
23281;BME280;11809;56.390;-3.266;2024-03-08T00:40:53;101765.09;;;14.03;57.25
23281;BME280;11809;56.390;-3.266;2024-03-08T00:43:23;101757.31;;;14.00;57.59
23281;BME280;11809;56.390;-3.266;2024-03-08T00:45:53;101747.72;;;13.97;57.61
23281;BME280;11809;56.390;-3.266;2024-03-08T00:48:27;101735.44;;;13.94;57.51
23281;BME280;11809;56.390;-3.266;2024-03-08T00:50:58;101738.09;;;13.94;57.48
23281;BME280;11809;56.390;-3.266;2024-03-08T00:53:29;101736.50;;;13.90;57.52
23281;BME280;11809;56.390;-3.266;2024-03-08T00:55:59;101743.63;;;13.88;57.74
23281;BME280;11809;56.390;-3.266;2024-03-08T00:58:29;101739.25;;;13.87;57.81
23281;BME280;11809;56.390;-3.266;2024-03-08T01:00:59;101746.31;;;13.87;57.91
23281;BME280;11809;56.390;-3.266;2024-03-08T01:03:32;101735.91;;;13.82;57.70
23281;BME280;11809;56.390;-3.266;2024-03-08T01:06:02;101747.34;;;13.83;58.14
23281;BME280;11809;56.390;-3.266;2024-03-08T01:08:32;101754.41;;;13.82;57.70
23281;BME280;11809;56.390;-3.266;2024-03-08T01:11:05;101744.75;;;13.81;57.78
23281;BME280;11809;56.390;-3.266;2024-03-08T01:13:36;101731.66;;;13.78;57.76
23281;BME280;11809;56.390;-3.266;2024-03-08T01:16:06;101732.56;;;13.77;57.91
23281;BME280;11809;56.390;-3.266;2024-03-08T01:18:44;101722.91;;;13.76;58.03
23281;BME280;11809;56.390;-3.266;2024-03-08T01:21:15;101722.09;;;13.74;57.96
23281;BME280;11809;56.390;-3.266;2024-03-08T01:23:45;101718.66;;;13.72;58.13
23281;BME280;11809;56.390;-3.266;2024-03-08T01:26:15;101721.31;;;13.72;58.11
23281;BME280;11809;56.390;-3.266;2024-03-08T01:28:45;101717.88;;;13.70;58.00
23281;BME280;11809;56.390;-3.266;2024-03-08T01:31:16;101710.84;;;13.69;58.24
23281;BME280;11809;56.390;-3.266;2024-03-08T01:33:49;101708.22;;;13.69;58.19
23281;BME280;11809;56.390;-3.266;2024-03-08T01:36:20;101700.34;;;13.68;58.35
23281;BME280;11809;56.390;-3.266;2024-03-08T01:38:52;101698.56;;;13.68;57.99
23281;BME280;11809;56.390;-3.266;2024-03-08T01:41:22;101682.06;;;13.62;58.21
23281;BME280;11809;56.390;-3.266;2024-03-08T01:43:52;101684.63;;;13.65;58.22
23281;BME280;11809;56.390;-3.266;2024-03-08T01:46:22;101680.16;;;13.65;58.32
23281;BME280;11809;56.390;-3.266;2024-03-08T01:48:58;101676.69;;;13.65;58.47
23281;BME280;11809;56.390;-3.266;2024-03-08T01:51:29;101672.31;;;13.64;58.36
23281;BME280;11809;56.390;-3.266;2024-03-08T01:54:00;101660.06;;;13.61;58.32
23281;BME280;11809;56.390;-3.266;2024-03-08T01:56:32;101666.22;;;13.62;58.16
23281;BME280;11809;56.390;-3.266;2024-03-08T01:59:03;101661.91;;;13.59;58.45
23281;BME280;11809;56.390;-3.266;2024-03-08T02:01:34;101661.97;;;13.58;58.31
23281;BME280;11809;56.390;-3.266;2024-03-08T02:04:07;101659.44;;;13.55;58.25
23281;BME280;11809;56.390;-3.266;2024-03-08T02:06:38;101653.31;;;13.54;58.44
23281;BME280;11809;56.390;-3.266;2024-03-08T02:09:08;101656.75;;;13.56;58.46
23281;BME280;11809;56.390;-3.266;2024-03-08T02:11:38;101651.50;;;13.55;58.40
23281;BME280;11809;56.390;-3.266;2024-03-08T02:14:10;101653.34;;;13.53;58.42
23281;BME280;11809;56.390;-3.266;2024-03-08T02:16:41;101641.00;;;13.53;58.42
23281;BME280;11809;56.390;-3.266;2024-03-08T02:19:13;101645.41;;;13.53;58.33
23281;BME280;11809;56.390;-3.266;2024-03-08T02:21:46;101634.00;;;13.52;58.57
23281;BME280;11809;56.390;-3.266;2024-03-08T02:24:16;101633.31;;;13.47;58.36
23281;BME280;11809;56.390;-3.266;2024-03-08T02:26:46;101634.13;;;13.49;58.47
23281;BME280;11809;56.390;-3.266;2024-03-08T02:29:16;101620.09;;;13.47;58.53
23281;BME280;11809;56.390;-3.266;2024-03-08T02:31:47;101624.47;;;13.48;58.51
23281;BME280;11809;56.390;-3.266;2024-03-08T02:34:17;101619.38;;;13.44;58.56
23281;BME280;11809;56.390;-3.266;2024-03-08T02:36:50;101625.38;;;13.47;58.60
23281;BME280;11809;56.390;-3.266;2024-03-08T02:39:20;101622.00;;;13.44;58.56
23281;BME280;11809;56.390;-3.266;2024-03-08T02:41:50;101621.06;;;13.45;58.57
23281;BME280;11809;56.390;-3.266;2024-03-08T02:44:20;101606.16;;;13.44;58.62
23281;BME280;11809;56.390;-3.266;2024-03-08T02:46:51;101606.19;;;13.42;58.56
23281;BME280;11809;56.390;-3.266;2024-03-08T02:49:22;101611.47;;;13.42;58.80
23281;BME280;11809;56.390;-3.266;2024-03-08T02:51:56;101609.78;;;13.41;58.67
23281;BME280;11809;56.390;-3.266;2024-03-08T02:54:26;101609.78;;;13.41;58.63
23281;BME280;11809;56.390;-3.266;2024-03-08T02:56:57;101606.28;;;13.41;58.46
23281;BME280;11809;56.390;-3.266;2024-03-08T02:59:27;101600.13;;;13.40;58.69
23281;BME280;11809;56.390;-3.266;2024-03-08T03:01:57;101600.19;;;13.39;58.76
23281;BME280;11809;56.390;-3.266;2024-03-08T03:04:27;101599.31;;;13.38;58.56
23281;BME280;11809;56.390;-3.266;2024-03-08T03:07:00;101588.78;;;13.38;58.60
23281;BME280;11809;56.390;-3.266;2024-03-08T03:09:31;101580.16;;;13.33;58.63
23281;BME280;11809;56.390;-3.266;2024-03-08T03:12:02;101588.78;;;13.38;58.59
23281;BME280;11809;56.390;-3.266;2024-03-08T03:14:36;101577.34;;;13.38;58.84
23281;BME280;11809;56.390;-3.266;2024-03-08T03:17:07;101572.97;;;13.36;58.58
23281;BME280;11809;56.390;-3.266;2024-03-08T03:19:37;101562.59;;;13.32;58.73
23281;BME280;11809;56.390;-3.266;2024-03-08T03:22:09;101560.59;;;13.39;58.72
23281;BME280;11809;56.390;-3.266;2024-03-08T03:24:40;101551.84;;;13.36;58.71
23281;BME280;11809;56.390;-3.266;2024-03-08T03:27:10;101551.91;;;13.35;58.65
23281;BME280;11809;56.390;-3.266;2024-03-08T03:29:41;101550.13;;;13.35;58.63
23281;BME280;11809;56.390;-3.266;2024-03-08T03:32:12;101562.47;;;13.35;58.91
23281;BME280;11809;56.390;-3.266;2024-03-08T03:34:43;101563.34;;;13.35;58.60
23281;BME280;11809;56.390;-3.266;2024-03-08T03:37:16;101555.47;;;13.34;58.66
23281;BME280;11809;56.390;-3.266;2024-03-08T03:39:47;101555.47;;;13.34;58.80
23281;BME280;11809;56.390;-3.266;2024-03-08T03:42:20;101563.44;;;13.32;58.73
23281;BME280;11809;56.390;-3.266;2024-03-08T03:44:52;101559.03;;;13.33;58.63
23281;BME280;11809;56.390;-3.266;2024-03-08T03:47:22;101556.41;;;13.33;58.57
23281;BME280;11809;56.390;-3.266;2024-03-08T03:49:54;101552.03;;;13.32;58.79
23281;BME280;11809;56.390;-3.266;2024-03-08T03:52:31;101549.44;;;13.30;58.77
23281;BME280;11809;56.390;-3.266;2024-03-08T03:55:01;101539.72;;;13.31;58.70
23281;BME280;11809;56.390;-3.266;2024-03-08T03:57:31;101530.91;;;13.32;58.80
23281;BME280;11809;56.390;-3.266;2024-03-08T04:00:01;101531.81;;;13.31;58.97
23281;BME280;11809;56.390;-3.266;2024-03-08T04:02:33;101528.34;;;13.30;58.72
23281;BME280;11809;56.390;-3.266;2024-03-08T04:05:03;101524.81;;;13.30;58.90
23281;BME280;11809;56.390;-3.266;2024-03-08T04:07:36;101521.34;;;13.28;58.77
23281;BME280;11809;56.390;-3.266;2024-03-08T04:10:08;101533.66;;;13.29;58.89
23281;BME280;11809;56.390;-3.266;2024-03-08T04:12:38;101528.44;;;13.27;59.16
23281;BME280;11809;56.390;-3.266;2024-03-08T04:15:08;101523.16;;;13.27;58.89
23281;BME280;11809;56.390;-3.266;2024-03-08T04:17:39;101523.16;;;13.27;58.82
23281;BME280;11809;56.390;-3.266;2024-03-08T04:20:09;101520.56;;;13.26;58.93
23281;BME280;11809;56.390;-3.266;2024-03-08T04:22:44;101524.16;;;13.25;58.87
23281;BME280;11809;56.390;-3.266;2024-03-08T04:25:16;101519.78;;;13.24;58.74
23281;BME280;11809;56.390;-3.266;2024-03-08T04:27:47;101516.22;;;13.25;58.98
23281;BME280;11809;56.390;-3.266;2024-03-08T04:30:19;101517.13;;;13.24;59.02
23281;BME280;11809;56.390;-3.266;2024-03-08T04:32:50;101513.63;;;13.23;58.79
23281;BME280;11809;56.390;-3.266;2024-03-08T04:35:20;101511.06;;;13.22;59.02
23281;BME280;11809;56.390;-3.266;2024-03-08T04:37:53;101509.28;;;13.22;58.83
23281;BME280;11809;56.390;-3.266;2024-03-08T04:40:24;101508.41;;;13.22;58.96
23281;BME280;11809;56.390;-3.266;2024-03-08T04:42:54;101509.31;;;13.21;59.09
23281;BME280;11809;56.390;-3.266;2024-03-08T04:45:25;101501.41;;;13.21;59.05
23281;BME280;11809;56.390;-3.266;2024-03-08T04:47:55;101501.41;;;13.21;58.87
23281;BME280;11809;56.390;-3.266;2024-03-08T04:50:25;101501.41;;;13.21;58.91
23281;BME280;11809;56.390;-3.266;2024-03-08T04:52:58;101505.78;;;13.22;58.81
23281;BME280;11809;56.390;-3.266;2024-03-08T04:55:29;101505.88;;;13.19;58.97
23281;BME280;11809;56.390;-3.266;2024-03-08T04:57:59;101503.25;;;13.19;59.06
23281;BME280;11809;56.390;-3.266;2024-03-08T05:00:30;101503.25;;;13.19;59.12
23281;BME280;11809;56.390;-3.266;2024-03-08T05:03:00;101497.22;;;13.15;58.90
23281;BME280;11809;56.390;-3.266;2024-03-08T05:05:31;101503.25;;;13.19;58.93
23281;BME280;11809;56.390;-3.266;2024-03-08T05:08:04;101508.53;;;13.19;59.11
23281;BME280;11809;56.390;-3.266;2024-03-08T05:10:34;101509.44;;;13.18;58.99
23281;BME280;11809;56.390;-3.266;2024-03-08T05:13:04;101500.59;;;13.19;59.24
23281;BME280;11809;56.390;-3.266;2024-03-08T05:15:34;101506.78;;;13.18;58.98
23281;BME280;11809;56.390;-3.266;2024-03-08T05:18:06;101505.09;;;13.17;58.92
23281;BME280;11809;56.390;-3.266;2024-03-08T05:20:38;101491.88;;;13.17;59.27
23281;BME280;11809;56.390;-3.266;2024-03-08T05:23:10;101494.53;;;13.17;58.94
23281;BME280;11809;56.390;-3.266;2024-03-08T05:25:40;101495.44;;;13.16;59.24
23281;BME280;11809;56.390;-3.266;2024-03-08T05:28:10;101486.63;;;13.17;59.71
23281;BME280;11809;56.390;-3.266;2024-03-08T05:30:40;101487.31;;;13.22;59.35
23281;BME280;11809;56.390;-3.266;2024-03-08T05:33:10;101479.53;;;13.17;58.98
23281;BME280;11809;56.390;-3.266;2024-03-08T05:35:41;101488.44;;;13.15;58.85
23281;BME280;11809;56.390;-3.266;2024-03-08T05:38:13;101482.47;;;13.10;58.94
23281;BME280;11809;56.390;-3.266;2024-03-08T05:40:43;101485.84;;;13.13;59.40
23281;BME280;11809;56.390;-3.266;2024-03-08T05:43:13;101485.09;;;13.10;59.17
23281;BME280;11809;56.390;-3.266;2024-03-08T05:45:46;101484.19;;;13.11;59.56
23281;BME280;11809;56.390;-3.266;2024-03-08T05:48:16;101471.69;;;13.16;59.42
23281;BME280;11809;56.390;-3.266;2024-03-08T05:50:49;101471.78;;;13.13;59.44
23281;BME280;11809;56.390;-3.266;2024-03-08T05:53:21;101472.72;;;13.12;59.21
23281;BME280;11809;56.390;-3.266;2024-03-08T05:55:51;101466.41;;;13.16;59.89
23281;BME280;11809;56.390;-3.266;2024-03-08T05:58:21;101474.44;;;13.13;59.75
23281;BME280;11809;56.390;-3.266;2024-03-08T06:00:51;101469.34;;;13.08;59.82
23281;BME280;11809;56.390;-3.266;2024-03-08T06:03:21;101471.09;;;13.08;59.88
23281;BME280;11809;56.390;-3.266;2024-03-08T06:05:51;101459.69;;;13.07;60.32
23281;BME280;11809;56.390;-3.266;2024-03-08T06:08:26;101462.28;;;13.09;60.11
23281;BME280;11809;56.390;-3.266;2024-03-08T06:10:57;101463.09;;;13.11;60.24
23281;BME280;11809;56.390;-3.266;2024-03-08T06:13:29;101464.00;;;13.10;60.45
23281;BME280;11809;56.390;-3.266;2024-03-08T06:16:01;101456.03;;;13.11;60.79
23281;BME280;11809;56.390;-3.266;2024-03-08T06:18:31;101453.13;;;13.17;60.66
23281;BME280;11809;56.390;-3.266;2024-03-08T06:21:03;101454.75;;;13.21;60.78
23281;BME280;11809;56.390;-3.266;2024-03-08T06:23:36;101457.22;;;13.26;61.05
23281;BME280;11809;56.390;-3.266;2024-03-08T06:26:06;101455.31;;;13.29;61.02
23281;BME280;11809;56.390;-3.266;2024-03-08T06:28:36;101460.41;;;13.34;61.25
23281;BME280;11809;56.390;-3.266;2024-03-08T06:31:06;101446.44;;;13.32;61.42
23281;BME280;11809;56.390;-3.266;2024-03-08T06:33:37;101449.97;;;13.31;60.96
23281;BME280;11809;56.390;-3.266;2024-03-08T06:36:08;101450.09;;;13.28;60.71
23281;BME280;11809;56.390;-3.266;2024-03-08T06:38:41;101454.66;;;13.24;60.63
23281;BME280;11809;56.390;-3.266;2024-03-08T06:41:13;101455.25;;;13.31;60.48
23281;BME280;11809;56.390;-3.266;2024-03-08T06:43:42;101451.91;;;13.27;60.41
23281;BME280;11809;56.390;-3.266;2024-03-08T06:46:14;101446.66;;;13.26;60.32
23281;BME280;11809;56.390;-3.266;2024-03-08T06:48:44;101444.81;;;13.28;60.09
23281;BME280;11809;56.390;-3.266;2024-03-08T06:51:16;101444.81;;;13.28;59.87
23281;BME280;11809;56.390;-3.266;2024-03-08T06:53:49;101452.63;;;13.31;60.47
23281;BME280;11809;56.390;-3.266;2024-03-08T06:56:19;101443.78;;;13.32;60.13
23281;BME280;11809;56.390;-3.266;2024-03-08T06:58:49;101448.28;;;13.30;59.58
23281;BME280;11809;56.390;-3.266;2024-03-08T07:01:19;101445.84;;;13.24;59.75
23281;BME280;11809;56.390;-3.266;2024-03-08T07:03:49;101444.13;;;13.23;59.54
23281;BME280;11809;56.390;-3.266;2024-03-08T07:06:19;101443.34;;;13.21;59.43
23281;BME280;11809;56.390;-3.266;2024-03-08T07:08:52;101450.47;;;13.19;59.52
23281;BME280;11809;56.390;-3.266;2024-03-08T07:11:22;101447.03;;;13.17;59.45
23281;BME280;11809;56.390;-3.266;2024-03-08T07:13:52;101442.66;;;13.16;59.40
23281;BME280;11809;56.390;-3.266;2024-03-08T07:16:22;101443.56;;;13.15;59.53
23281;BME280;11809;56.390;-3.266;2024-03-08T07:18:53;101441.84;;;13.14;59.32
23281;BME280;11809;56.390;-3.266;2024-03-08T07:21:26;101433.34;;;13.06;59.47
23281;BME280;11809;56.390;-3.266;2024-03-08T07:23:58;101449.81;;;13.12;60.19
23281;BME280;11809;56.390;-3.266;2024-03-08T07:26:45;101441.19;;;12.59;56.82
23281;BME280;11809;56.390;-3.266;2024-03-08T07:29:17;101445.91;;;12.27;56.43
23281;BME280;11809;56.390;-3.266;2024-03-08T07:31:47;101440.59;;;12.02;56.13
23281;BME280;11809;56.390;-3.266;2024-03-08T07:34:29;101449.28;;;12.30;56.63
23281;BME280;11809;56.390;-3.266;2024-03-08T07:37:00;101442.56;;;12.46;57.19
23281;BME280;11809;56.390;-3.266;2024-03-08T07:39:36;101443.94;;;12.56;57.85
23281;BME280;11809;56.390;-3.266;2024-03-08T07:42:06;101440.31;;;12.60;58.00
23281;BME280;11809;56.390;-3.266;2024-03-08T07:44:36;101439.22;;;12.66;58.30
23281;BME280;11809;56.390;-3.266;2024-03-08T07:47:07;101436.53;;;12.67;58.51
23281;BME280;11809;56.390;-3.266;2024-03-08T07:49:37;101440.84;;;12.45;56.92
23281;BME280;11809;56.390;-3.266;2024-03-08T07:52:07;101434.53;;;12.49;57.68
23281;BME280;11809;56.390;-3.266;2024-03-08T07:54:45;101431.72;;;12.54;58.05
23281;BME280;11809;56.390;-3.266;2024-03-08T07:57:16;101436.09;;;12.55;58.46
23281;BME280;11809;56.390;-3.266;2024-03-08T07:59:46;101428.19;;;12.55;58.88
23281;BME280;11809;56.390;-3.266;2024-03-08T08:02:16;101434.34;;;12.55;59.00
23281;BME280;11809;56.390;-3.266;2024-03-08T08:04:46;101436.97;;;12.55;58.97
23281;BME280;11809;56.390;-3.266;2024-03-08T08:07:16;101430.91;;;12.53;59.04
23281;BME280;11809;56.390;-3.266;2024-03-08T08:09:49;101431.81;;;12.52;59.28
23281;BME280;11809;56.390;-3.266;2024-03-08T08:12:19;101437.06;;;12.52;59.39
23281;BME280;11809;56.390;-3.266;2024-03-08T08:14:49;101432.81;;;12.48;59.37
23281;BME280;11809;56.390;-3.266;2024-03-08T08:17:20;101424.91;;;12.48;59.47
23281;BME280;11809;56.390;-3.266;2024-03-08T08:19:50;101430.16;;;12.48;59.76
23281;BME280;11809;56.390;-3.266;2024-03-08T08:22:20;101427.59;;;12.47;59.95
23281;BME280;11809;56.390;-3.266;2024-03-08T08:24:53;101423.31;;;12.44;59.84
23281;BME280;11809;56.390;-3.266;2024-03-08T08:27:23;101426.81;;;12.45;59.88
23281;BME280;11809;56.390;-3.266;2024-03-08T08:29:53;101423.22;;;12.46;59.81
23281;BME280;11809;56.390;-3.266;2024-03-08T08:32:24;101419.81;;;12.44;59.88
23281;BME280;11809;56.390;-3.266;2024-03-08T08:34:54;101422.44;;;12.44;59.55
23281;BME280;11809;56.390;-3.266;2024-03-08T08:37:26;101417.22;;;12.42;59.95
23281;BME280;11809;56.390;-3.266;2024-03-08T08:39:59;101420.78;;;12.41;59.89
23281;BME280;11809;56.390;-3.266;2024-03-08T08:42:32;101413.78;;;12.40;59.88
23281;BME280;11809;56.390;-3.266;2024-03-08T08:45:02;101404.25;;;12.36;59.93
23281;BME280;11809;56.390;-3.266;2024-03-08T08:47:42;101406.78;;;12.39;59.94
23281;BME280;11809;56.390;-3.266;2024-03-08T08:50:14;101415.59;;;12.38;60.20
23281;BME280;11809;56.390;-3.266;2024-03-08T08:52:51;101412.09;;;12.38;60.23
23281;BME280;11809;56.390;-3.266;2024-03-08T08:55:24;101406.00;;;12.37;60.05
23281;BME280;11809;56.390;-3.266;2024-03-08T08:57:54;101407.81;;;12.35;60.09
23281;BME280;11809;56.390;-3.266;2024-03-08T09:00:24;101410.44;;;12.35;60.14
23281;BME280;11809;56.390;-3.266;2024-03-08T09:02:57;101416.69;;;12.33;60.22
23281;BME280;11809;56.390;-3.266;2024-03-08T09:05:29;101413.13;;;12.34;60.21
23281;BME280;11809;56.390;-3.266;2024-03-08T09:08:03;101413.19;;;12.32;59.91
23281;BME280;11809;56.390;-3.266;2024-03-08T09:10:36;101417.66;;;12.30;60.14
23281;BME280;11809;56.390;-3.266;2024-03-08T09:13:06;101416.75;;;12.31;60.07
23281;BME280;11809;56.390;-3.266;2024-03-08T09:15:47;101408.94;;;12.28;60.29
23281;BME280;11809;56.390;-3.266;2024-03-08T09:18:17;101408.06;;;12.28;60.37
23281;BME280;11809;56.390;-3.266;2024-03-08T09:20:48;101402.00;;;12.26;60.46
23281;BME280;11809;56.390;-3.266;2024-03-08T09:23:19;101400.22;;;12.26;60.28
23281;BME280;11809;56.390;-3.266;2024-03-08T09:25:52;101393.22;;;12.25;60.40
23281;BME280;11809;56.390;-3.266;2024-03-08T09:28:22;101392.38;;;12.25;60.24
23281;BME280;11809;56.390;-3.266;2024-03-08T09:30:54;101386.41;;;12.20;60.25
23281;BME280;11809;56.390;-3.266;2024-03-08T09:33:27;101395.00;;;12.25;60.41
23281;BME280;11809;56.390;-3.266;2024-03-08T09:35:59;101394.16;;;12.24;60.33
23281;BME280;11809;56.390;-3.266;2024-03-08T09:38:30;101390.66;;;12.24;60.24
23281;BME280;11809;56.390;-3.266;2024-03-08T09:41:03;101387.19;;;12.22;60.19
23281;BME280;11809;56.390;-3.266;2024-03-08T09:43:35;101388.13;;;12.21;60.10
23281;BME280;11809;56.390;-3.266;2024-03-08T09:46:05;101380.25;;;12.19;60.28
23281;BME280;11809;56.390;-3.266;2024-03-08T09:48:36;101378.56;;;12.18;60.18
23281;BME280;11809;56.390;-3.266;2024-03-08T09:51:08;101380.25;;;12.19;60.41
23281;BME280;11809;56.390;-3.266;2024-03-08T09:53:41;101372.50;;;12.16;60.01
23281;BME280;11809;56.390;-3.266;2024-03-08T09:56:19;101362.78;;;12.16;60.24
23281;BME280;11809;56.390;-3.266;2024-03-08T09:58:50;101370.69;;;12.16;60.02
23281;BME280;11809;56.390;-3.266;2024-03-08T10:01:48;101364.59;;;12.16;60.14
23281;BME280;11809;56.390;-3.266;2024-03-08T10:04:19;101362.00;;;12.14;60.28
23281;BME280;11809;56.390;-3.266;2024-03-08T10:06:49;101357.59;;;12.15;60.26
23281;BME280;11809;56.390;-3.266;2024-03-08T10:09:19;101355.81;;;12.15;60.31
23281;BME280;11809;56.390;-3.266;2024-03-08T10:11:55;101350.59;;;12.14;59.96
23281;BME280;11809;56.390;-3.266;2024-03-08T10:14:26;101340.97;;;12.13;60.21
23281;BME280;11809;56.390;-3.266;2024-03-08T10:16:57;101340.97;;;12.13;60.27
23281;BME280;11809;56.390;-3.266;2024-03-08T10:19:28;101340.16;;;12.11;60.12
23281;BME280;11809;56.390;-3.266;2024-03-08T10:21:58;101336.69;;;12.10;60.38
23281;BME280;11809;56.390;-3.266;2024-03-08T10:24:31;101335.84;;;12.08;60.22
23281;BME280;11809;56.390;-3.266;2024-03-08T10:27:08;101340.28;;;12.08;60.17
23281;BME280;11809;56.390;-3.266;2024-03-08T10:29:38;101334.09;;;12.09;60.15
23281;BME280;11809;56.390;-3.266;2024-03-08T10:32:11;101337.50;;;12.11;60.10
23281;BME280;11809;56.390;-3.266;2024-03-08T10:34:41;101328.81;;;12.09;60.11
23281;BME280;11809;56.390;-3.266;2024-03-08T10:37:12;101318.44;;;12.04;59.98
23281;BME280;11809;56.390;-3.266;2024-03-08T10:39:46;101319.22;;;12.08;60.03
23281;BME280;11809;56.390;-3.266;2024-03-08T10:42:22;101319.22;;;12.08;59.86
23281;BME280;11809;56.390;-3.266;2024-03-08T10:44:58;101316.69;;;12.05;59.90
23281;BME280;11809;56.390;-3.266;2024-03-08T10:47:31;101325.31;;;12.08;60.06
23281;BME280;11809;56.390;-3.266;2024-03-08T10:50:05;101310.44;;;12.07;60.13
23281;BME280;11809;56.390;-3.266;2024-03-08T10:52:40;101311.34;;;12.06;60.22
23281;BME280;11809;56.390;-3.266;2024-03-08T10:55:11;101303.50;;;12.05;59.96
23281;BME280;11809;56.390;-3.266;2024-03-08T10:57:45;101310.53;;;12.04;59.85
23281;BME280;11809;56.390;-3.266;2024-03-08T11:00:15;101303.63;;;12.02;59.92
23281;BME280;11809;56.390;-3.266;2024-03-08T11:02:53;101308.91;;;12.00;60.20
23281;BME280;11809;56.390;-3.266;2024-03-08T11:05:35;101308.88;;;12.02;60.25
23281;BME280;11809;56.390;-3.266;2024-03-08T11:08:16;101310.72;;;12.00;60.16
23281;BME280;11809;56.390;-3.266;2024-03-08T11:10:49;101308.09;;;12.00;60.31
23281;BME280;11809;56.390;-3.266;2024-03-08T11:13:36;101309.06;;;11.97;60.42
23281;BME280;11809;56.390;-3.266;2024-03-08T11:16:07;101293.34;;;11.94;60.05
23281;BME280;11809;56.390;-3.266;2024-03-08T11:18:38;101296.72;;;11.98;60.34
23281;BME280;11809;56.390;-3.266;2024-03-08T11:21:08;101299.31;;;11.99;60.17
23281;BME280;11809;56.390;-3.266;2024-03-08T11:23:41;101301.97;;;11.98;60.30
23281;BME280;11809;56.390;-3.266;2024-03-08T11:26:17;101299.41;;;11.96;60.37
23281;BME280;11809;56.390;-3.266;2024-03-08T11:28:50;101297.66;;;11.97;60.36
23281;BME280;11809;56.390;-3.266;2024-03-08T11:31:25;101298.56;;;11.96;60.28
23281;BME280;11809;56.390;-3.266;2024-03-08T11:33:56;101286.44;;;11.90;60.11
23281;BME280;11809;56.390;-3.266;2024-03-08T11:36:26;101294.19;;;11.95;60.25
23281;BME280;11809;56.390;-3.266;2024-03-08T11:38:58;101296.81;;;11.95;60.11
23281;BME280;11809;56.390;-3.266;2024-03-08T11:41:36;101281.25;;;11.89;60.34
23281;BME280;11809;56.390;-3.266;2024-03-08T11:44:11;101288.13;;;11.93;60.12
23281;BME280;11809;56.390;-3.266;2024-03-08T11:46:43;101282.91;;;11.91;60.36
23281;BME280;11809;56.390;-3.266;2024-03-08T11:49:15;101280.28;;;11.91;60.25
23281;BME280;11809;56.390;-3.266;2024-03-08T11:51:43;101273.28;;;11.90;60.49
23281;BME280;11809;56.390;-3.266;2024-03-08T11:54:14;101277.69;;;11.90;60.48
23281;BME280;11809;56.390;-3.266;2024-03-08T11:56:45;101274.16;;;11.91;60.18
23281;BME280;11809;56.390;-3.266;2024-03-08T11:59:22;101267.16;;;11.90;60.34
23281;BME280;11809;56.390;-3.266;2024-03-08T12:02:00;101262.81;;;11.89;60.35
23281;BME280;11809;56.390;-3.266;2024-03-08T12:04:33;101258.41;;;11.89;60.06
23281;BME280;11809;56.390;-3.266;2024-03-08T12:07:04;101260.13;;;11.90;60.22
23281;BME280;11809;56.390;-3.266;2024-03-08T12:09:40;101262.81;;;11.89;60.25
23281;BME280;11809;56.390;-3.266;2024-03-08T12:12:14;101261.94;;;11.88;60.17
23281;BME280;11809;56.390;-3.266;2024-03-08T12:14:47;101254.06;;;11.88;60.21
23281;BME280;11809;56.390;-3.266;2024-03-08T12:17:19;101253.19;;;11.88;60.23
23281;BME280;11809;56.390;-3.266;2024-03-08T12:19:51;101249.66;;;11.89;60.29
23281;BME280;11809;56.390;-3.266;2024-03-08T12:22:25;101241.75;;;11.89;60.10
23281;BME280;11809;56.390;-3.266;2024-03-08T12:25:05;101247.00;;;11.89;60.16
23281;BME280;11809;56.390;-3.266;2024-03-08T12:27:39;101234.75;;;11.88;60.09
23281;BME280;11809;56.390;-3.266;2024-03-08T12:30:21;101240.88;;;11.88;60.13
23281;BME280;11809;56.390;-3.266;2024-03-08T12:32:54;101237.34;;;11.89;60.38
23281;BME280;11809;56.390;-3.266;2024-03-08T12:35:27;101237.38;;;11.88;60.14
23281;BME280;11809;56.390;-3.266;2024-03-08T12:38:04;101233.06;;;11.87;60.27
23281;BME280;11809;56.390;-3.266;2024-03-08T12:40:35;101224.28;;;11.86;60.53
23281;BME280;11809;56.390;-3.266;2024-03-08T12:43:10;101217.34;;;11.84;60.19
23281;BME280;11809;56.390;-3.266;2024-03-08T12:45:46;101211.13;;;11.86;60.48
23281;BME280;11809;56.390;-3.266;2024-03-08T12:48:17;101210.25;;;11.86;60.59
23281;BME280;11809;56.390;-3.266;2024-03-08T12:50:48;101211.03;;;11.88;60.31
23281;BME280;11809;56.390;-3.266;2024-03-08T12:53:20;101212.88;;;11.86;60.28
23281;BME280;11809;56.390;-3.266;2024-03-08T12:55:53;101205.00;;;11.86;60.40
23281;BME280;11809;56.390;-3.266;2024-03-08T12:58:23;101208.53;;;11.85;60.40
23281;BME280;11809;56.390;-3.266;2024-03-08T13:00:59;101197.19;;;11.83;60.25
23281;BME280;11809;56.390;-3.266;2024-03-08T13:03:32;101205.88;;;11.85;60.33